Daviess County (DCY)

 

Airport Diagram
No Airport Diagram Available
Current Weather/Forecast (VFR Conditions)
METAR KDCY 210915Z AUTO 26004KT 10SM SCT038 BKN046 BKN070 19/18 A3011 RMK AO2 LTG DSNT NE T01850184
TAF

Airport Information

All Charts
General
Chart Name View
TAKEOFF MINIMUMS
ALTERNATE MINIMUMS
TAKEOFF MINIMUMS
ALTERNATE MINIMUMS

Approaches
Chart Name Download
RNAV (GPS) RWY 18
RNAV (GPS) RWY 18


Airport Statistics
Departures Arrivals Local
All Collected Stats since June 2016: 5 3 0
2020 Stats: 1 1 0
October Stats: 0 0 0

Inbound Traffic (Arrivals) - 0

No inbound traffic.


Outbound Traffic (Departures) - 0

No outbound traffic.


Local Traffic (Pattern) - 0

No local traffic.